49.7°F
Current conditions from King Hill
Updated every 5 minutes
 
  Monday April 21, 2014

Station Historical Data
Daily Summary for March 25, 2011 Units:  Metric    English   Both
« Previous Day
Next Day »
Daily Weekly Monthly Yearly Custom
  High: Low: Average:
Temperature: -0.6 °C -7 °C -4.2 °C
Dew Point: -4.9 °C -14.7 °C -11.1 °C
Humidity: 92% 41% 61%
Wind Speed: 16.1km/h 1.6km/h 6.6km/h
Wind Gust: 30.6km/h - -
Wind- - WNW
Pressure: 1013.1 hPa 1010 hPa -
Precipitation: 0 mm    
Historical Graphs
 
 
Tabular Data for March 25, 2011
Time Temperature Dew Point Pressure Wind Wind Speed Wind Gust Humidity Daily Rainfall
00:04 -3.1 °C -6.2 °C 1011.1 hPa West 4.8 km/h 12.9 km/h 79% 0 mm
00:09 -3.1 °C -6.3 °C 1010.7 hPa West 4.8 km/h 11.3 km/h 78% 0 mm
00:14 -3 °C -6.4 °C 1010.7 hPa West 4.8 km/h 11.3 km/h 77% 0 mm
00:19 -3 °C -6.6 °C 1010.7 hPa West 3.2 km/h 11.3 km/h 76% 0 mm
00:24 -3 °C -6.8 °C 1010.7 hPa WNW 6.4 km/h 11.3 km/h 75% 0 mm
00:30 -3 °C -6.6 °C 1010.7 hPa West 9.7 km/h 17.7 km/h 76% 0 mm
00:34 -3.2 °C -6.4 °C 1010.7 hPa West 8 km/h 17.7 km/h 78% 0 mm
00:39 -3.3 °C -6.4 °C 1010.7 hPa West 3.2 km/h 14.5 km/h 79% 0 mm
00:44 -3.3 °C -6.4 °C 1010.7 hPa WNW 6.4 km/h 14.5 km/h 79% 0 mm
00:49 -3.3 °C -6.3 °C 1010.7 hPa WNW 6.4 km/h 14.5 km/h 80% 0 mm
00:54 -3.4 °C -6.1 °C 1010.7 hPa WNW 6.4 km/h 14.5 km/h 82% 0 mm
01:04 -3.7 °C -6.1 °C 1010.7 hPa WNW 4.8 km/h 11.3 km/h 84% 0 mm
01:09 -3.8 °C -5.9 °C 1010.7 hPa WNW 3.2 km/h 11.3 km/h 85% 0 mm
01:14 -3.8 °C -4.9 °C 1010.7 hPa Calm   8 km/h 92% 0 mm
01:19 -3.9 °C -6.1 °C 1010.7 hPa Calm   6.4 km/h 85% 0 mm
01:24 -4 °C -6.2 °C 1010.7 hPa Calm   3.2 km/h 85% 0 mm
01:29 -4 °C -6.3 °C 1010.7 hPa Calm   4.8 km/h 84% 0 mm
01:34 -4.1 °C -6.4 °C 1010.7 hPa WNW 1.6 km/h 4.8 km/h 84% 0 mm
01:39 -4.2 °C -6.6 °C 1010.7 hPa Calm   4.8 km/h 83% 0 mm
01:44 -4.2 °C -6.8 °C 1010.7 hPa Calm     82% 0 mm
01:49 -4.2 °C -6.8 °C 1010.7 hPa Calm     82% 0 mm
01:54 -4.3 °C -6.9 °C 1010.7 hPa Calm   4.8 km/h 82% 0 mm
01:59 -4.3 °C -7.1 °C 1010.7 hPa Calm   4.8 km/h 81% 0 mm
02:04 -4.2 °C -7 °C 1010.7 hPa WNW 1.6 km/h 4.8 km/h 81% 0 mm
02:09 -4.1 °C -7 °C 1010.7 hPa Calm   6.4 km/h 80% 0 mm
02:14 -4.1 °C -7.2 °C 1010.7 hPa Calm   6.4 km/h 79% 0 mm
02:19 -4.2 °C -7.4 °C 1010.7 hPa West 1.6 km/h 6.4 km/h 78% 0 mm
02:24 -4.2 °C -7.5 °C 1010.7 hPa Calm   6.4 km/h 78% 0 mm
02:29 -4.3 °C -7.6 °C 1010.7 hPa WSW 4.8 km/h 8 km/h 78% 0 mm
02:34 -4.3 °C -7.6 °C 1010.7 hPa Calm   8 km/h 78% 0 mm
02:39 -4.3 °C -7.6 °C 1010.7 hPa WSW 4.8 km/h 8 km/h 78% 0 mm
02:44 -4.2 °C -7.4 °C 1010.7 hPa West 6.4 km/h 9.7 km/h 78% 0 mm
02:49 -4.1 °C -7.6 °C 1010.4 hPa West 4.8 km/h 9.7 km/h 77% 0 mm
02:54 -4.1 °C -7.7 °C 1010.7 hPa West 3.2 km/h 11.3 km/h 76% 0 mm
02:59 -4.2 °C -7.8 °C 1010.7 hPa WNW 3.2 km/h 11.3 km/h 76% 0 mm
03:04 -4.2 °C -7.8 °C 1010.4 hPa WNW 6.4 km/h 11.3 km/h 76% 0 mm
03:09 -4 °C -7.8 °C 1010.7 hPa WNW 8 km/h 11.3 km/h 75% 0 mm
03:14 -4 °C -7.8 °C 1010.7 hPa WNW 3.2 km/h 12.9 km/h 75% 0 mm
03:19 -4.2 °C -8.1 °C 1010.4 hPa WNW 4.8 km/h 12.9 km/h 74% 0 mm
03:24 -4.3 °C -8.3 °C 1010.4 hPa WNW 3.2 km/h 8 km/h 74% 0 mm
03:30 -4.6 °C -8.5 °C 1010.7 hPa WNW 3.2 km/h 8 km/h 74% 0 mm
03:39 -4.8 °C -8.6 °C 1010.7 hPa Calm   4.8 km/h 75% 0 mm
03:44 -4.8 °C -8.6 °C 1010.7 hPa West 3.2 km/h 9.7 km/h 75% 0 mm
03:49 -4.7 °C -8.5 °C 1010.7 hPa West 1.6 km/h 9.7 km/h 75% 0 mm
03:54 -4.8 °C -8.7 °C 1010.7 hPa WNW 4.8 km/h 8 km/h 74% 0 mm
03:59 -4.8 °C -8.8 °C 1010.7 hPa WNW 3.2 km/h 6.4 km/h 74% 0 mm
04:04 -4.7 °C -8.7 °C 1010.7 hPa WNW 4.8 km/h 9.7 km/h 74% 0 mm
04:09 -4.7 °C -8.6 °C 1010.7 hPa WNW 4.8 km/h 9.7 km/h 74% 0 mm
04:14 -4.6 °C -8.6 °C 1010.7 hPa WNW 1.6 km/h 9.7 km/h 74% 0 mm
04:19 -4.6 °C -8.7 °C 1010.7 hPa WNW 6.4 km/h 11.3 km/h 73% 0 mm
04:24 -4.6 °C -8.7 °C 1010.7 hPa WNW 4.8 km/h 11.3 km/h 73% 0 mm
04:29 -4.6 °C -8.7 °C 1010.7 hPa NW 8 km/h 12.9 km/h 73% 0 mm
04:34 -4.6 °C -8.8 °C 1010.7 hPa WNW 4.8 km/h 12.9 km/h 72% 0 mm
04:39 -4.7 °C -8.9 °C 1010.7 hPa NW 8 km/h 12.9 km/h 72% 0 mm
04:44 -4.7 °C -8.9 °C 1010.7 hPa WNW 6.4 km/h 12.9 km/h 72% 0 mm
04:49 -4.8 °C -9.1 °C 1010.7 hPa WNW 6.4 km/h 11.3 km/h 72% 0 mm
04:54 -4.9 °C -9.2 °C 1010.7 hPa WNW 4.8 km/h 11.3 km/h 72% 0 mm
04:59 -4.9 °C -9.2 °C 1010.7 hPa WNW 9.7 km/h 16.1 km/h 72% 0 mm
05:04 -4.9 °C -9.2 °C 1010.7 hPa NW 3.2 km/h 16.1 km/h 72% 0 mm
05:09 -5.1 °C -9.5 °C 1010.7 hPa WNW 1.6 km/h 9.7 km/h 71% 0 mm
05:14 -5.2 °C -9.4 °C 1010.7 hPa NW 1.6 km/h 9.7 km/h 72% 0 mm
05:19 -5.2 °C -9.5 °C 1010.7 hPa West 3.2 km/h 12.9 km/h 72% 0 mm
05:24 -5.4 °C -9.9 °C 1011.1 hPa WNW 3.2 km/h 12.9 km/h 71% 0 mm
05:29 -5.7 °C -9.9 °C 1010.7 hPa Calm   8 km/h 72% 0 mm
05:34 -5.8 °C -9.8 °C 1011.1 hPa Calm   4.8 km/h 73% 0 mm
05:39 -5.9 °C -9.9 °C 1011.1 hPa Calm   4.8 km/h 73% 0 mm
05:44 -5.7 °C -9.4 °C 1011.1 hPa West 1.6 km/h 8 km/h 75% 0 mm
05:49 -5.7 °C -9.4 °C 1011.1 hPa WNW 1.6 km/h 9.7 km/h 75% 0 mm
05:54 -5.7 °C -9.4 °C 1011.1 hPa WNW 6.4 km/h 9.7 km/h 75% 0 mm
05:59 -5.6 °C -9.4 °C 1011.1 hPa WNW 1.6 km/h 9.7 km/h 74% 0 mm
06:04 -5.6 °C -9.1 °C 1011.1 hPa WNW 4.8 km/h 11.3 km/h 76% 0 mm
06:09 -5.7 °C -9.2 °C 1011.1 hPa WNW 1.6 km/h 11.3 km/h 76% 0 mm
06:14 -5.9 °C -9.4 °C 1011.1 hPa Calm   4.8 km/h 76% 0 mm
06:19 -6.2 °C -9.7 °C 1011.4 hPa Calm   4.8 km/h 76% 0 mm
06:24 -6.3 °C -9.7 °C 1011.4 hPa Calm     77% 0 mm
06:29 -6.6 °C -9.9 °C 1011.4 hPa Calm     77% 0 mm
06:34 -6.6 °C -9.9 °C 1011.7 hPa NW 4.8 km/h 12.9 km/h 77% 0 mm
06:39 -6.4 °C -10 °C 1011.7 hPa NW 1.6 km/h 12.9 km/h 76% 0 mm
06:44 -6.5 °C -10.2 °C 1011.7 hPa Calm   4.8 km/h 75% 0 mm
06:49 -6.6 °C -10.3 °C 1011.7 hPa Calm   4.8 km/h 75% 0 mm
06:54 -6.6 °C -10.3 °C 1011.7 hPa Calm     75% 0 mm
06:59 -6.7 °C -10.2 °C 1012.1 hPa Calm     76% 0 mm
07:04 -6.9 °C -10.4 °C 1012.1 hPa Calm   1.6 km/h 76% 0 mm
07:09 -6.8 °C -10 °C 1012.1 hPa Calm   1.6 km/h 78% 0 mm
07:14 -6.8 °C -10.2 °C 1012.1 hPa West 1.6 km/h 3.2 km/h 77% 0 mm
07:19 -6.7 °C -10.2 °C 1012.1 hPa Calm   3.2 km/h 76% 0 mm
07:24 -6.7 °C -10.2 °C 1012.4 hPa Calm   3.2 km/h 76% 0 mm
07:29 -6.6 °C -9.9 °C 1012.4 hPa Calm   3.2 km/h 77% 0 mm
07:34 -6.4 °C -9.8 °C 1012.4 hPa Calm     77% 0 mm
07:39 -6.3 °C -9.5 °C 1012.4 hPa Calm   3.2 km/h 78% 0 mm
07:44 -6.1 °C -9.3 °C 1012.4 hPa Calm   3.2 km/h 78% 0 mm
07:49 -5.8 °C -9.2 °C 1012.4 hPa Calm   3.2 km/h 77% 0 mm
07:54 -5.6 °C -9 °C 1012.4 hPa Calm     77% 0 mm
07:59 -5.4 °C -9 °C 1012.4 hPa Calm     76% 0 mm
08:04 -5.3 °C -9 °C 1012.4 hPa Calm     75% 0 mm
08:09 -5.2 °C -9.1 °C 1012.4 hPa Calm     74% 0 mm
08:14 -4.9 °C -8.9 °C 1012.4 hPa Calm     74% 0 mm
08:19 -4.8 °C -9.1 °C 1012.4 hPa Calm     72% 0 mm
08:24 -4.7 °C -8.9 °C 1012.4 hPa West 1.6 km/h 3.2 km/h 72% 0 mm
08:29 -4.7 °C -9.5 °C 1012.4 hPa WNW 6.4 km/h 9.7 km/h 69% 0 mm
08:34 -4.8 °C -9.6 °C 1012.4 hPa West 4.8 km/h 9.7 km/h 69% 0 mm
08:39 -4.9 °C -9.5 °C 1012.4 hPa West 4.8 km/h 11.3 km/h 70% 0 mm
08:44 -4.9 °C -9.4 °C 1012.4 hPa West 3.2 km/h 11.3 km/h 71% 0 mm
08:49 -4.9 °C -9.4 °C 1012.4 hPa WNW 3.2 km/h 9.7 km/h 71% 0 mm
08:54 -5 °C -9.8 °C 1012.4 hPa WSW 4.8 km/h 9.7 km/h 69% 0 mm
08:59 -5 °C -9.8 °C 1012.4 hPa NW 1.6 km/h 9.7 km/h 69% 0 mm
09:04 -4.9 °C -9.9 °C 1012.4 hPa WNW 3.2 km/h 9.7 km/h 68% 0 mm
09:09 -4.8 °C -10 °C 1012.4 hPa NW 4.8 km/h 12.9 km/h 67% 0 mm
09:14 -4.7 °C -10.1 °C 1012.1 hPa NW 8 km/h 12.9 km/h 66% 0 mm
09:19 -4.7 °C -10.1 °C 1012.4 hPa WNW 4.8 km/h 12.9 km/h 66% 0 mm
09:24 -4.6 °C -10 °C 1012.4 hPa WNW 3.2 km/h 11.3 km/h 66% 0 mm
09:29 -4.6 °C -10.2 °C 1012.1 hPa West 3.2 km/h 9.7 km/h 65% 0 mm
09:34 -4.6 °C -10.2 °C 1012.1 hPa West 4.8 km/h 9.7 km/h 65% 0 mm
09:39 -4.4 °C -10 °C 1012.1 hPa West 4.8 km/h 9.7 km/h 65% 0 mm
09:44 -4.2 °C -9.9 °C 1012.1 hPa WNW 8 km/h 11.3 km/h 64% 0 mm
09:49 -4.1 °C -10.1 °C 1012.1 hPa Calm   11.3 km/h 63% 0 mm
09:54 -4 °C -10 °C 1012.1 hPa NW 3.2 km/h 12.9 km/h 63% 0 mm
09:59 -3.8 °C -10.2 °C 1012.1 hPa NW 1.6 km/h 12.9 km/h 61% 0 mm
10:04 -3.7 °C -10.3 °C 1012.1 hPa WNW 3.2 km/h 9.7 km/h 60% 0 mm
10:09 -3.6 °C -10.1 °C 1012.1 hPa WNW 6.4 km/h 9.7 km/h 61% 0 mm
10:14 -3.6 °C -10.2 °C 1012.1 hPa Calm   9.7 km/h 60% 0 mm
10:19 -3.5 °C -10.4 °C 1012.1 hPa NW 4.8 km/h 9.7 km/h 59% 0 mm
10:24 -3.4 °C -10.5 °C 1012.1 hPa West 6.4 km/h 14.5 km/h 58% 0 mm
10:29 -3.6 °C -10.4 °C 1011.7 hPa West 4.8 km/h 14.5 km/h 59% 0 mm
10:34 -3.4 °C -10.5 °C 1011.7 hPa NW 6.4 km/h 12.9 km/h 58% 0 mm
10:39 -3.2 °C -10.3 °C 1011.7 hPa West 3.2 km/h 12.9 km/h 58% 0 mm
10:44 -3.2 °C -10.8 °C 1011.7 hPa WNW 3.2 km/h 14.5 km/h 56% 0 mm
10:49 -3.3 °C -10.9 °C 1011.7 hPa WNW 8 km/h 14.5 km/h 56% 0 mm
10:54 -3.2 °C -10.6 °C 1011.7 hPa WNW 11.3 km/h 19.3 km/h 57% 0 mm
10:59 -3.3 °C -10.6 °C 1011.7 hPa West 4.8 km/h 19.3 km/h 57% 0 mm
11:04 -3.1 °C -10.4 °C 1011.7 hPa WNW 4.8 km/h 14.5 km/h 57% 0 mm
11:09 -3.1 °C -10.9 °C 1011.7 hPa West 8 km/h 17.7 km/h 55% 0 mm
11:14 -2.9 °C -10.7 °C 1011.7 hPa WNW 8 km/h 19.3 km/h 55% 0 mm
11:19 -3.2 °C -10.7 °C 1011.7 hPa West 11.3 km/h 19.3 km/h 56% 0 mm
11:24 -3.4 °C -11.2 °C 1011.7 hPa WNW 11.3 km/h 19.3 km/h 55% 0 mm
11:29 -3.3 °C -10.9 °C 1011.4 hPa WSW 8 km/h 20.9 km/h 56% 0 mm
11:34 -3.1 °C -11.1 °C 1011.4 hPa WSW 6.4 km/h 20.9 km/h 54% 0 mm
11:39 -3 °C -10.8 °C 1011.4 hPa West 9.7 km/h 24.1 km/h 55% 0 mm
11:44 -3 °C -11 °C 1011.4 hPa WNW 11.3 km/h 24.1 km/h 54% 0 mm
11:49 -3.1 °C -11.1 °C 1011.4 hPa West 9.7 km/h 20.9 km/h 54% 0 mm
11:54 -2.8 °C -11.1 °C 1011.4 hPa West 9.7 km/h 20.9 km/h 53% 0 mm
11:59 -2.8 °C -11.1 °C 1011.4 hPa WNW 9.7 km/h 19.3 km/h 53% 0 mm
12:04 -2.9 °C -11.4 °C 1011.1 hPa West 11.3 km/h 19.3 km/h 52% 0 mm
12:09 -2.8 °C -11.1 °C 1011.1 hPa NW 8 km/h 22.5 km/h 53% 0 mm
12:14 -2.5 °C -11 °C 1011.4 hPa WNW 12.9 km/h 22.5 km/h 52% 0 mm
12:19 -3 °C -11 °C 1011.1 hPa WNW 8 km/h 20.9 km/h 54% 0 mm
12:24 -2.5 °C -10.6 °C 1011.1 hPa NW 8 km/h 17.7 km/h 54% 0 mm
12:29 -2.8 °C -11.3 °C 1011.1 hPa WSW 9.7 km/h 22.5 km/h 52% 0 mm
12:34 -3.2 °C -11.9 °C 1011.1 hPa WNW 6.4 km/h 27.4 km/h 51% 0 mm
12:39 -3.1 °C -11.6 °C 1011.1 hPa NW 8 km/h 27.4 km/h 52% 0 mm
12:44 -3.1 °C -11.3 °C 1011.1 hPa NW 6.4 km/h 22.5 km/h 53% 0 mm
12:49 -3 °C -10.6 °C 1011.1 hPa NNW 3.2 km/h 22.5 km/h 56% 0 mm
12:54 -2.8 °C -11.1 °C 1011.1 hPa North 4.8 km/h 11.3 km/h 53% 0 mm
12:59 -2.9 °C -11.9 °C 1011.1 hPa West 12.9 km/h 24.1 km/h 50% 0 mm
13:04 -2.8 °C -12 °C 1010.7 hPa WNW 4.8 km/h 27.4 km/h 49% 0 mm
13:09 -2.4 °C -10.7 °C 1010.7 hPa NW 3.2 km/h 27.4 km/h 53% 0 mm
13:14 -2.4 °C -12.2 °C 1010.7 hPa WNW 6.4 km/h 16.1 km/h 47% 0 mm
13:19 -2.4 °C -11.4 °C 1010.7 hPa NW 8 km/h 14.5 km/h 50% 0 mm
13:24 -2.4 °C -11.7 °C 1010.7 hPa North 8 km/h 16.1 km/h 49% 0 mm
13:29 -2.4 °C -11.7 °C 1010.7 hPa NNW 8 km/h 16.1 km/h 49% 0 mm
13:34 -2.3 °C -11.6 °C 1010.7 hPa NNW 4.8 km/h 16.1 km/h 49% 0 mm
13:39 -1.8 °C -11.1 °C 1010.4 hPa North 6.4 km/h 16.1 km/h 49% 0 mm
13:44 -1.1 °C -11.2 °C 1010.4 hPa NNW 11.3 km/h 17.7 km/h 46% 0 mm
13:49 -1.7 °C -11.5 °C 1010.4 hPa NW 6.4 km/h 17.7 km/h 47% 0 mm
13:54 -1.7 °C -12.1 °C 1010.4 hPa NNW 12.9 km/h 22.5 km/h 45% 0 mm
13:59 -1.9 °C -11.7 °C 1010.4 hPa NNW 6.4 km/h 22.5 km/h 47% 0 mm
14:04 -1.9 °C -11.7 °C 1010.4 hPa NNW 8 km/h 24.1 km/h 47% 0 mm
14:09 -2.1 °C -12.4 °C 1010.4 hPa NW 16.1 km/h 24.1 km/h 45% 0 mm
14:14 -2.3 °C -12.7 °C 1010.4 hPa WNW 8 km/h 24.1 km/h 45% 0 mm
14:19 -2.1 °C -12.2 °C 1010.4 hPa NW 11.3 km/h 19.3 km/h 46% 0 mm
14:24 -1.9 °C -12.3 °C 1010.4 hPa NNW 4.8 km/h 19.3 km/h 45% 0 mm
14:29 -1.9 °C -12.3 °C 1010.4 hPa NNW 9.7 km/h 16.1 km/h 45% 0 mm
14:34 -1.4 °C -11.8 °C 1010 hPa NNW 11.3 km/h 17.7 km/h 45% 0 mm
14:39 -1.7 °C -12.1 °C 1010.4 hPa NNW 9.7 km/h 17.7 km/h 45% 0 mm
14:44 -1.6 °C -11.7 °C 1010 hPa NW 6.4 km/h 17.7 km/h 46% 0 mm
14:49 -1.2 °C -11.6 °C 1010 hPa North 6.4 km/h 19.3 km/h 45% 0 mm
14:54 -1.3 °C -11.7 °C 1010.4 hPa NW 12.9 km/h 22.5 km/h 45% 0 mm
14:59 -1.1 °C -11.8 °C 1010 hPa NNW 9.7 km/h 22.5 km/h 44% 0 mm
15:04 -1.2 °C -12.2 °C 1010.4 hPa NNW 11.3 km/h 24.1 km/h 43% 0 mm
15:09 -1.5 °C -12.8 °C 1010.4 hPa WNW 4.8 km/h 24.1 km/h 42% 0 mm
15:14 -1.6 °C -11.7 °C 1010 hPa NW 12.9 km/h 24.1 km/h 46% 0 mm
15:19 -1.1 °C -11.5 °C 1010 hPa North 6.4 km/h 22.5 km/h 45% 0 mm
15:24 -0.6 °C -11.4 °C 1010 hPa NNW 9.7 km/h 19.3 km/h 44% 0 mm
15:29 -1.5 °C -12.4 °C 1010.4 hPa NW 9.7 km/h 22.5 km/h 43% 0 mm
15:34 -1.9 °C -12.3 °C 1010.4 hPa NW 3.2 km/h 22.5 km/h 45% 0 mm
15:44 -2.3 °C -12.3 °C 1010.4 hPa NNW 9.7 km/h 25.7 km/h 46% 0 mm
15:49 -1.8 °C -12.5 °C 1010.4 hPa WNW 14.5 km/h 24.1 km/h 44% 0 mm
15:54 -2.2 °C -13.1 °C 1010.4 hPa NNW 8 km/h 24.1 km/h 43% 0 mm
15:59 -2.1 °C -12.4 °C 1010.4 hPa NNW 6.4 km/h 14.5 km/h 45% 0 mm
16:04 -2 °C -12.1 °C 1010.4 hPa NNW 11.3 km/h 24.1 km/h 46% 0 mm
16:09 -2.3 °C -12.7 °C 1010.4 hPa NW 12.9 km/h 24.1 km/h 45% 0 mm
16:14 -2.2 °C -12.2 °C 1010.4 hPa NNW 9.7 km/h 24.1 km/h 46% 0 mm
16:19 -2.2 °C -13.1 °C 1010.7 hPa North 9.7 km/h 20.9 km/h 43% 0 mm
16:24 -2.1 °C -12.7 °C 1010.7 hPa NNW 4.8 km/h 17.7 km/h 44% 0 mm
16:29 -2.3 °C -12.6 °C 1010.7 hPa NNW 6.4 km/h 20.9 km/h 45% 0 mm
16:34 -2.4 °C -13 °C 1010.7 hPa NNW 8 km/h 20.9 km/h 44% 0 mm
16:44 -2.1 °C -13 °C 1010.7 hPa NNW 8 km/h 20.9 km/h 43% 0 mm
16:49 -1.9 °C -13.1 °C 1010.7 hPa NNW 8 km/h 20.9 km/h 42% 0 mm
16:54 -1.9 °C -13.2 °C 1010.7 hPa NNW 9.7 km/h 20.9 km/h 42% 0 mm
16:59 -2.2 °C -13.1 °C 1010.7 hPa NW 6.4 km/h 20.9 km/h 43% 0 mm
17:04 -2.5 °C -13.1 °C 1010.7 hPa NNW 6.4 km/h 24.1 km/h 44% 0 mm
17:09 -2.5 °C -13.1 °C 1010.7 hPa NNW 6.4 km/h 24.1 km/h 44% 0 mm
17:14 -2.3 °C -13.2 °C 1010.7 hPa North 6.4 km/h 22.5 km/h 43% 0 mm
17:19 -2.4 °C -13.6 °C 1010.7 hPa NNW 8 km/h 20.9 km/h 42% 0 mm
17:24 -2.4 °C -13.6 °C 1011.1 hPa NNW 9.7 km/h 20.9 km/h 42% 0 mm
17:29 -2.8 °C -13.9 °C 1010.7 hPa NNW 6.4 km/h 24.1 km/h 42% 0 mm
17:34 -2.9 °C -14.3 °C 1011.1 hPa NW 12.9 km/h 27.4 km/h 41% 0 mm
17:44 -3.2 °C -14.3 °C 1011.1 hPa NNW 9.7 km/h 30.6 km/h 42% 0 mm
17:49 -3.4 °C -14.2 °C 1011.1 hPa NNW 6.4 km/h 30.6 km/h 43% 0 mm
17:54 -3.4 °C -14.2 °C 1011.1 hPa NNW 9.7 km/h 27.4 km/h 43% 0 mm
17:59 -3.3 °C -14.1 °C 1011.1 hPa NNW 12.9 km/h 29 km/h 43% 0 mm
18:04 -3.2 °C -14.3 °C 1011.1 hPa NNW 8 km/h 29 km/h 42% 0 mm
18:09 -3.1 °C -13.9 °C 1011.1 hPa NNW 8 km/h 27.4 km/h 43% 0 mm
18:14 -3 °C -14.1 °C 1011.1 hPa NNW 9.7 km/h 22.5 km/h 42% 0 mm
18:19 -3.2 °C -14.6 °C 1011.1 hPa NW 9.7 km/h 25.7 km/h 41% 0 mm
18:24 -3.2 °C -14.1 °C 1011.1 hPa NNW 9.7 km/h 25.7 km/h 43% 0 mm
18:30 -3.4 °C -14.5 °C 1011.4 hPa NNW 11.3 km/h 27.4 km/h 42% 0 mm
18:34 -3.7 °C -14.4 °C 1011.4 hPa NNW 6.4 km/h 27.4 km/h 43% 0 mm
18:39 -3.8 °C -14.6 °C 1011.4 hPa NNW 11.3 km/h 25.7 km/h 43% 0 mm
18:44 -3.9 °C -14.7 °C 1011.4 hPa NNW 11.3 km/h 22.5 km/h 43% 0 mm
18:49 -4.1 °C -14.6 °C 1011.4 hPa NNW 8 km/h 22.5 km/h 44% 0 mm
18:54 -4.3 °C -14.5 °C 1011.4 hPa NW 6.4 km/h 22.5 km/h 45% 0 mm
18:59 -4.6 °C -14.4 °C 1011.7 hPa NNW 4.8 km/h 17.7 km/h 46% 0 mm
19:04 -4.7 °C -14.6 °C 1011.7 hPa NNW 14.5 km/h 22.5 km/h 46% 0 mm
19:09 -4.8 °C -14.2 °C 1011.7 hPa NW 4.8 km/h 22.5 km/h 48% 0 mm
19:14 -5 °C -14.3 °C 1011.7 hPa NW 11.3 km/h 20.9 km/h 48% 0 mm
19:19 -5 °C -14.3 °C 1011.7 hPa NW 9.7 km/h 22.5 km/h 48% 0 mm
19:24 -5.2 °C -14.5 °C 1011.7 hPa NNW 8 km/h 22.5 km/h 48% 0 mm
19:29 -5.3 °C -14.3 °C 1012.1 hPa NNW 6.4 km/h 17.7 km/h 49% 0 mm
19:34 -5.3 °C -14.3 °C 1012.1 hPa NW 8 km/h 29 km/h 49% 0 mm
19:39 -5.4 °C -14.4 °C 1012.1 hPa NNW 6.4 km/h 29 km/h 49% 0 mm
19:44 -5.5 °C -14.6 °C 1012.1 hPa NNW 11.3 km/h 24.1 km/h 49% 0 mm
19:49 -5.4 °C -14.5 °C 1012.1 hPa NW 9.7 km/h 24.1 km/h 49% 0 mm
19:54 -5.5 °C -14.6 °C 1012.1 hPa NW 9.7 km/h 17.7 km/h 49% 0 mm
19:59 -5.6 °C -14.6 °C 1012.4 hPa NNW 6.4 km/h 17.7 km/h 49% 0 mm
20:04 -5.6 °C -14.6 °C 1012.4 hPa NNW 12.9 km/h 29 km/h 49% 0 mm
20:09 -5.6 °C -14.6 °C 1012.4 hPa NNW 6.4 km/h 29 km/h 49% 0 mm
20:14 -5.7 °C -14.5 °C 1012.8 hPa NNW 3.2 km/h 19.3 km/h 50% 0 mm
20:19 -5.8 °C -14.6 °C 1012.8 hPa NNW 6.4 km/h 20.9 km/h 50% 0 mm
20:24 -5.8 °C -14.6 °C 1012.8 hPa NW 8 km/h 20.9 km/h 50% 0 mm
20:29 -5.8 °C -14.3 °C 1012.8 hPa NW 6.4 km/h 12.9 km/h 51% 0 mm
20:34 -5.9 °C -14.2 °C 1012.8 hPa NW 1.6 km/h 12.9 km/h 52% 0 mm
20:39 -6.1 °C -14.1 °C 1012.8 hPa NW 4.8 km/h 9.7 km/h 53% 0 mm
20:44 -6.2 °C -14 °C 1013.1 hPa NW 6.4 km/h 12.9 km/h 54% 0 mm
20:49 -6.2 °C -14 °C 1013.1 hPa NW 8 km/h 17.7 km/h 54% 0 mm
20:54 -6.2 °C -14.2 °C 1013.1 hPa NW 8 km/h 17.7 km/h 53% 0 mm
20:59 -6.1 °C -14.1 °C 1013.1 hPa NW 6.4 km/h 14.5 km/h 53% 0 mm
21:04 -6.2 °C -13.9 °C 1013.1 hPa NW 1.6 km/h 12.9 km/h 54% 0 mm
21:09 -6.2 °C -14.2 °C 1013.1 hPa NW 3.2 km/h 11.3 km/h 53% 0 mm
21:14 -6.2 °C -14.2 °C 1012.8 hPa NW 6.4 km/h 17.7 km/h 53% 0 mm
21:19 -6.2 °C -14 °C 1013.1 hPa WNW 4.8 km/h 17.7 km/h 54% 0 mm
21:24 -6.4 °C -14.2 °C 1013.1 hPa WNW 1.6 km/h 17.7 km/h 54% 0 mm
21:29 -6.4 °C -14.2 °C 1013.1 hPa WNW 4.8 km/h 14.5 km/h 54% 0 mm
21:34 -6.6 °C -14.3 °C 1013.1 hPa WNW 6.4 km/h 14.5 km/h 54% 0 mm
21:44 -6.7 °C -14.5 °C 1012.8 hPa Calm   8 km/h 54% 0 mm
21:49 -6.8 °C -14.4 °C 1012.8 hPa WNW 4.8 km/h 9.7 km/h 55% 0 mm
21:54 -6.8 °C -14.4 °C 1012.8 hPa West 1.6 km/h 9.7 km/h 55% 0 mm
21:59 -6.7 °C -14.3 °C 1012.8 hPa West 3.2 km/h 9.7 km/h 55% 0 mm
22:04 -6.6 °C -14.1 °C 1012.8 hPa WNW 1.6 km/h 14.5 km/h 55% 0 mm
22:09 -6.4 °C -14 °C 1012.8 hPa WNW 4.8 km/h 14.5 km/h 55% 0 mm
22:14 -6.3 °C -13.7 °C 1012.8 hPa WNW 1.6 km/h 9.7 km/h 56% 0 mm
22:19 -6.3 °C -13.8 °C 1012.8 hPa WNW 3.2 km/h 9.7 km/h 55% 0 mm
22:24 -6.3 °C -13.8 °C 1012.8 hPa WNW 3.2 km/h 9.7 km/h 55% 0 mm
22:29 -6.2 °C -13.8 °C 1012.8 hPa WNW 8 km/h 16.1 km/h 55% 0 mm
22:35 -6.2 °C -13.7 °C 1012.8 hPa NW 6.4 km/h 16.1 km/h 55% 0 mm
22:44 -6.1 °C -13.4 °C 1012.8 hPa NW 6.4 km/h 14.5 km/h 56% 0 mm
22:49 -6.1 °C -13.7 °C 1012.8 hPa WNW 9.7 km/h 14.5 km/h 55% 0 mm
22:54 -6.1 °C -13.7 °C 1012.8 hPa WNW 8 km/h 14.5 km/h 55% 0 mm
22:59 -6.1 °C -13.4 °C 1012.8 hPa West 6.4 km/h 16.1 km/h 56% 0 mm
23:04 -6.2 °C -13.5 °C 1012.8 hPa NW 9.7 km/h 22.5 km/h 56% 0 mm
23:09 -6.2 °C -13.3 °C 1012.8 hPa WNW 4.8 km/h 22.5 km/h 57% 0 mm
23:14 -6.3 °C -13.4 °C 1012.8 hPa WNW 8 km/h 19.3 km/h 57% 0 mm
23:19 -6.3 °C -13.2 °C 1012.8 hPa NW 8 km/h 19.3 km/h 58% 0 mm
23:24 -6.4 °C -13.3 °C 1012.8 hPa WNW 6.4 km/h 17.7 km/h 58% 0 mm
23:29 -6.5 °C -13.4 °C 1012.8 hPa WNW 6.4 km/h 14.5 km/h 58% 0 mm
23:35 -6.5 °C -13.4 °C 1012.8 hPa WNW 11.3 km/h 20.9 km/h 58% 0 mm
23:44 -6.6 °C -13.5 °C 1012.8 hPa WNW 6.4 km/h 12.9 km/h 58% 0 mm
23:49 -6.8 °C -13.5 °C 1012.8 hPa WNW 3.2 km/h 12.9 km/h 59% 0 mm
23:54 -6.8 °C -13.5 °C 1012.8 hPa WNW 1.6 km/h 9.7 km/h 59% 0 mm
23:59 -7 °C -13.4 °C 1012.8 hPa WNW 3.2 km/h 9.7 km/h 60% 0 mm
Westford Weather
Compliments of Weather Underground

 
 
Current Radar Loop:

Copyright © WestfordWeather.net 2007-2014. All rights reserved.